Time;durP1;ratioP1;P1;durP2;ratioP2;P2;SDS_P1;SDS_P2;PMS_P1;PMS_P2;Temp;Humidity;BMP_temperature;BMP_pressure;BME280_temperature;BME280_humidity;BME280_pressure;Samples;Min_cycle;Max_cycle;Signal;HPM_P1;HPM_P2
2021/09/14 00:02:10;;;;;;;7.35;5.82;;;17.70;22.80;;;;;;5083937;28;20093;-68
2021/09/14 00:04:39;;;;;;;8.48;6.03;;;17.60;22.50;;;;;;5045071;28;20126;-69
2021/09/14 00:07:11;;;;;;;6.07;5.45;;;17.70;23.30;;;;;;5070927;28;20054;-69
2021/09/14 00:09:39;;;;;;;7.20;6.00;;;17.60;22.80;;;;;;5076046;28;20192;-69
2021/09/14 00:12:08;;;;;;;8.55;5.88;;;17.60;23.20;;;;;;5083418;28;20044;-69
2021/09/14 00:14:41;;;;;;;7.32;5.95;;;17.60;23.20;;;;;;5082654;28;20070;-70
2021/09/14 00:17:12;;;;;;;6.35;5.38;;;17.60;23.20;;;;;;5082252;28;20047;-69
2021/09/14 00:19:40;;;;;;;7.25;5.50;;;17.60;23.00;;;;;;5079925;28;20044;-70
2021/09/14 00:22:08;;;;;;;7.53;5.90;;;17.60;22.60;;;;;;5085522;28;20133;-70
2021/09/14 00:24:36;;;;;;;6.20;5.15;;;17.60;22.30;;;;;;5076541;28;20106;-70
2021/09/14 00:27:07;;;;;;;6.68;5.40;;;17.70;21.30;;;;;;5060137;28;20476;-70
2021/09/14 00:29:37;;;;;;;7.68;6.05;;;17.70;21.60;;;;;;5063631;28;20072;-70
2021/09/14 00:32:17;;;;;;;6.85;5.82;;;17.70;21.50;;;;;;5067019;28;20063;-70
2021/09/14 00:34:45;;;;;;;9.80;5.10;;;17.80;20.40;;;;;;5072556;28;20044;-70
2021/09/14 00:37:13;;;;;;;6.22;5.55;;;17.90;20.40;;;;;;5084114;28;20237;-70
2021/09/14 00:39:41;;;;;;;9.13;5.70;;;17.80;20.30;;;;;;5077982;28;20041;-70
2021/09/14 00:42:09;;;;;;;6.30;5.35;;;17.80;20.30;;;;;;5067835;28;20492;-70
2021/09/14 00:44:38;;;;;;;7.70;5.28;;;17.80;20.40;;;;;;5061681;28;20045;-70
2021/09/14 00:47:07;;;;;;;6.22;5.32;;;17.80;20.10;;;;;;5066108;28;20048;-70
2021/09/14 00:49:35;;;;;;;8.40;5.88;;;17.80;19.80;;;;;;5065870;28;20056;-70
2021/09/14 00:52:03;;;;;;;8.98;5.32;;;17.80;19.90;;;;;;5064074;28;20052;-70
2021/09/14 00:54:32;;;;;;;7.28;5.43;;;17.80;20.10;;;;;;5062977;28;20092;-70
2021/09/14 00:57:00;;;;;;;6.95;5.78;;;17.80;19.90;;;;;;5062293;28;20057;-70
2021/09/14 00:59:28;;;;;;;8.15;6.28;;;17.80;20.20;;;;;;5058287;28;20049;-70
2021/09/14 01:01:58;;;;;;;6.72;5.38;;;17.80;19.80;;;;;;5075866;28;20131;-70
2021/09/14 01:04:27;;;;;;;7.25;6.07;;;17.80;19.80;;;;;;5078280;28;20051;-70
2021/09/14 01:06:55;;;;;;;8.27;5.88;;;17.80;20.20;;;;;;5083543;28;20051;-70
2021/09/14 01:09:24;;;;;;;7.32;5.60;;;17.70;20.20;;;;;;5078564;28;20052;-70
2021/09/14 01:11:53;;;;;;;6.22;5.60;;;17.70;20.30;;;;;;5078931;28;20123;-70
2021/09/14 01:14:23;;;;;;;6.47;5.80;;;17.70;20.30;;;;;;5076777;28;20391;-70
2021/09/14 01:16:51;;;;;;;8.00;5.88;;;17.70;20.30;;;;;;5079214;28;20098;-70
2021/09/14 01:19:21;;;;;;;7.72;6.22;;;17.70;20.30;;;;;;5076387;28;20464;-70
2021/09/14 01:21:49;;;;;;;7.20;6.50;;;17.70;20.30;;;;;;5082569;28;20109;-70
2021/09/14 01:24:18;;;;;;;7.15;6.43;;;17.70;20.90;;;;;;5082272;28;20081;-70
2021/09/14 01:26:46;;;;;;;8.98;6.40;;;17.60;21.70;;;;;;5078450;28;20044;-70
2021/09/14 01:30:12;;;;;;;11.02;7.57;;;17.60;22.30;;;;;;5076293;28;20500;-70
2021/09/14 01:32:05;;;;;;;10.43;7.03;;;17.60;22.20;;;;;;5078326;28;20040;-70
2021/09/14 01:34:33;;;;;;;10.45;8.02;;;17.70;21.80;;;;;;5075456;28;20044;-70
2021/09/14 01:37:01;;;;;;;11.00;7.55;;;17.60;22.50;;;;;;5084484;28;20060;-70
2021/09/14 01:39:31;;;;;;;10.20;8.50;;;17.60;23.00;;;;;;5083104;28;20048;-70
2021/09/14 01:41:59;;;;;;;10.43;8.70;;;17.50;23.60;;;;;;5081098;28;20131;-70
2021/09/14 01:44:27;;;;;;;12.27;7.97;;;17.50;23.70;;;;;;5085048;28;20105;-70
2021/09/14 01:46:54;;;;;;;10.10;8.43;;;17.50;24.20;;;;;;5077198;28;20105;-70
2021/09/14 01:49:23;;;;;;;11.45;8.07;;;17.50;24.20;;;;;;5083408;28;20052;-70
2021/09/14 01:51:51;;;;;;;9.10;7.40;;;17.40;24.20;;;;;;5075630;28;20090;-70
2021/09/14 01:54:19;;;;;;;11.55;8.77;;;17.40;24.60;;;;;;5083802;28;20098;-70
2021/09/14 01:56:48;;;;;;;8.70;7.57;;;17.50;24.20;;;;;;5080380;28;20044;-70
2021/09/14 01:59:16;;;;;;;8.60;7.70;;;17.50;23.90;;;;;;5078929;28;20405;-70
2021/09/14 02:01:53;;;;;;;11.50;8.50;;;17.40;24.30;;;;;;5080001;28;20101;-70
2021/09/14 02:04:33;;;;;;;9.70;7.80;;;17.40;24.20;;;;;;5080875;28;20055;-70
2021/09/14 02:24:07;;;;;;;9.75;6.78;;;16.60;29.90;;;;;;5083435;28;20124;-70
2021/09/14 02:40:50;;;;;;;8.40;7.60;;;16.50;34.20;;;;;;5078026;28;20539;-69
2021/09/14 02:43:26;;;;;;;10.45;8.07;;;16.50;34.20;;;;;;5076607;28;20060;-69
2021/09/14 02:59:46;;;;;;;11.15;8.02;;;16.50;34.90;;;;;;5077258;28;20049;-70
2021/09/14 03:02:17;;;;;;;10.60;8.13;;;16.50;34.30;;;;;;5082001;28;20048;-69
2021/09/14 03:04:45;;;;;;;9.77;8.40;;;16.50;34.20;;;;;;5080807;28;20044;-69
2021/09/14 03:07:13;;;;;;;8.73;7.80;;;16.50;34.20;;;;;;5077306;28;20048;-69
2021/09/14 03:09:41;;;;;;;8.38;7.00;;;16.50;34.20;;;;;;5074451;28;20069;-69
2021/09/14 03:12:10;;;;;;;10.25;7.47;;;16.60;32.90;;;;;;5083088;28;20054;-69
2021/09/14 03:14:38;;;;;;;7.93;7.05;;;16.60;32.20;;;;;;5080406;28;20055;-69
2021/09/14 03:17:06;;;;;;;9.32;6.90;;;16.60;32.00;;;;;;5077159;28;20064;-69
2021/09/14 03:19:35;;;;;;;7.82;7.03;;;16.60;32.80;;;;;;5083055;28;20052;-69
2021/09/14 03:22:04;;;;;;;9.77;7.82;;;16.60;32.40;;;;;;5083732;28;20044;-69
2021/09/14 03:24:31;;;;;;;8.65;7.40;;;16.70;31.20;;;;;;5079700;28;20052;-69
2021/09/14 03:26:59;;;;;;;9.10;7.50;;;16.70;30.30;;;;;;5082235;28;20040;-69
2021/09/14 03:29:27;;;;;;;8.73;7.15;;;16.70;30.70;;;;;;5078807;28;20056;-69
2021/09/14 03:31:55;;;;;;;10.20;8.25;;;16.70;31.40;;;;;;5071996;28;20048;-68
2021/09/14 03:34:23;;;;;;;10.77;7.75;;;16.70;30.60;;;;;;5081103;28;20056;-69
2021/09/14 03:36:53;;;;;;;12.70;8.00;;;16.70;30.60;;;;;;5086625;28;20047;-69
2021/09/14 03:39:21;;;;;;;10.63;7.78;;;16.70;30.60;;;;;;5084668;28;20052;-69
2021/09/14 03:41:49;;;;;;;9.60;8.57;;;16.70;30.90;;;;;;5083008;28;20044;-69
2021/09/14 03:44:17;;;;;;;12.70;8.50;;;16.70;31.20;;;;;;5082654;28;20060;-69
2021/09/14 03:46:45;;;;;;;9.48;8.57;;;16.70;32.00;;;;;;5083259;28;20063;-69
2021/09/14 03:49:13;;;;;;;10.25;8.75;;;16.80;31.10;;;;;;5080310;28;20044;-69
2021/09/14 03:51:41;;;;;;;12.18;8.90;;;16.80;31.40;;;;;;5083648;28;20523;-69
2021/09/14 03:54:10;;;;;;;11.98;9.40;;;16.80;31.70;;;;;;5083647;28;20048;-69
2021/09/14 03:56:38;;;;;;;11.00;8.85;;;16.80;31.30;;;;;;5083505;28;20048;-69
2021/09/14 03:59:06;;;;;;;11.73;8.88;;;16.80;31.70;;;;;;5082935;28;20572;-69
2021/09/14 04:01:37;;;;;;;11.27;9.48;;;16.80;31.50;;;;;;5079710;28;20083;-69
2021/09/14 04:04:11;;;;;;;12.57;9.18;;;16.80;31.60;;;;;;5082428;28;20051;-68
2021/09/14 04:06:53;;;;;;;12.18;10.27;;;16.80;32.00;;;;;;5084237;28;20131;-69
2021/09/14 04:09:23;;;;;;;12.65;9.55;;;16.70;31.60;;;;;;5081353;28;20636;-69
2021/09/14 04:11:52;;;;;;;13.50;9.43;;;16.70;32.30;;;;;;5082702;28;20509;-69
2021/09/14 04:14:20;;;;;;;15.15;9.48;;;16.70;32.60;;;;;;5079462;28;20056;-69
2021/09/14 04:16:48;;;;;;;13.10;10.27;;;16.70;32.80;;;;;;5083557;28;20052;-69
2021/09/14 04:19:16;;;;;;;12.35;9.52;;;16.70;33.10;;;;;;5083870;28;20114;-69
2021/09/14 04:21:44;;;;;;;11.18;9.57;;;16.70;33.10;;;;;;5085212;28;20766;-69
2021/09/14 04:24:12;;;;;;;14.50;10.40;;;16.70;32.80;;;;;;5084752;28;20052;-69
2021/09/14 04:26:41;;;;;;;12.98;9.32;;;16.70;33.20;;;;;;5084859;28;20099;-69
2021/09/14 04:29:09;;;;;;;14.05;10.38;;;16.70;33.20;;;;;;5079956;28;20044;-69
2021/09/14 04:31:37;;;;;;;12.05;10.15;;;16.70;33.40;;;;;;5084471;28;20052;-69
2021/09/14 04:34:05;;;;;;;10.88;9.38;;;16.70;32.90;;;;;;5082835;28;20098;-69
2021/09/14 04:36:33;;;;;;;14.52;9.80;;;16.70;33.30;;;;;;5080992;28;20086;-68
2021/09/14 04:39:01;;;;;;;11.43;9.93;;;16.70;32.90;;;;;;5080851;28;20423;-69
2021/09/14 04:41:30;;;;;;;12.77;10.35;;;16.70;33.10;;;;;;5083939;28;20090;-69
2021/09/14 04:43:59;;;;;;;15.65;10.45;;;16.70;33.10;;;;;;5082230;28;21405;-69
2021/09/14 04:46:27;;;;;;;13.10;10.23;;;16.70;32.50;;;;;;5084586;28;20076;-69
2021/09/14 04:48:55;;;;;;;12.50;10.73;;;16.60;33.10;;;;;;5077211;28;20040;-69
2021/09/14 04:51:23;;;;;;;14.35;10.13;;;16.60;33.90;;;;;;5080696;28;20110;-69
2021/09/14 04:53:51;;;;;;;14.52;10.05;;;16.60;33.30;;;;;;5076861;28;20578;-69
2021/09/14 04:56:19;;;;;;;16.13;10.60;;;16.60;33.90;;;;;;5086824;28;20495;-70
2021/09/14 04:58:49;;;;;;;10.75;9.40;;;16.60;33.70;;;;;;5078748;28;20098;-69
2021/09/14 05:01:19;;;;;;;12.23;10.27;;;16.50;33.90;;;;;;5082759;28;20082;-69
2021/09/14 05:03:49;;;;;;;13.55;10.10;;;16.50;34.20;;;;;;5084947;28;20079;-69
2021/09/14 05:06:17;;;;;;;12.98;10.90;;;16.50;33.90;;;;;;5083143;28;20075;-69
2021/09/14 05:08:45;;;;;;;16.27;10.65;;;16.50;34.20;;;;;;5083834;28;20051;-69
2021/09/14 05:11:13;;;;;;;14.07;9.40;;;16.40;34.10;;;;;;5082042;28;20102;-69
2021/09/14 05:13:41;;;;;;;12.25;9.35;;;16.40;34.30;;;;;;5079324;28;20098;-69
2021/09/14 05:16:09;;;;;;;10.15;8.90;;;16.40;34.70;;;;;;5082305;28;20511;-69
2021/09/14 05:18:39;;;;;;;12.80;9.60;;;16.50;34.20;;;;;;5063578;28;20052;-69
2021/09/14 05:21:07;;;;;;;10.55;8.40;;;16.70;32.20;;;;;;5079807;28;20047;-69
2021/09/14 05:23:35;;;;;;;10.23;8.93;;;17.10;27.30;;;;;;5078314;28;20410;-69
2021/09/14 05:26:04;;;;;;;11.18;8.57;;;16.80;28.70;;;;;;5081450;28;20052;-69
2021/09/14 05:28:33;;;;;;;10.57;8.40;;;16.90;29.20;;;;;;5081377;28;20136;-69
2021/09/14 05:31:03;;;;;;;12.00;9.13;;;16.80;29.80;;;;;;5072779;28;20052;-69
2021/09/14 05:33:31;;;;;;;12.77;8.93;;;16.80;29.40;;;;;;5085015;28;20048;-69
2021/09/14 05:36:01;;;;;;;10.30;8.65;;;16.80;29.10;;;;;;5076820;28;20060;-70
2021/09/14 05:38:31;;;;;;;10.85;7.93;;;16.90;29.60;;;;;;5080033;28;20047;-69
2021/09/14 05:40:59;;;;;;;10.45;8.23;;;17.00;28.70;;;;;;5083924;28;20085;-70
2021/09/14 05:43:28;;;;;;;11.05;8.20;;;17.10;27.90;;;;;;5083046;28;20067;-70
2021/09/14 05:46:01;;;;;;;10.57;8.63;;;17.10;26.90;;;;;;5080090;28;20534;-69
2021/09/14 05:48:30;;;;;;;11.35;8.35;;;17.10;26.90;;;;;;5080333;28;20052;-70
2021/09/14 05:50:58;;;;;;;9.15;7.55;;;17.30;26.10;;;;;;5076060;28;20056;-68
2021/09/14 05:53:27;;;;;;;13.30;8.43;;;17.40;24.90;;;;;;5084098;28;20051;-69
2021/09/14 05:55:55;;;;;;;11.73;7.97;;;17.30;25.20;;;;;;5079133;28;20089;-70
2021/09/14 05:58:24;;;;;;;10.98;7.82;;;17.30;24.90;;;;;;5085016;28;20051;-70
2021/09/14 06:00:52;;;;;;;11.93;8.02;;;17.40;25.50;;;;;;5082650;28;20050;-70
2021/09/14 06:03:20;;;;;;;10.80;8.23;;;17.60;24.70;;;;;;5074170;28;20088;-70
2021/09/14 06:05:48;;;;;;;16.08;8.95;;;17.70;23.40;;;;;;5076045;28;20074;-70
2021/09/14 06:08:16;;;;;;;9.77;8.50;;;17.70;23.10;;;;;;5077596;28;20068;-70
2021/09/14 06:10:46;;;;;;;10.45;8.25;;;17.80;22.10;;;;;;5079075;28;20141;-69
2021/09/14 06:13:14;;;;;;;11.82;8.15;;;17.80;21.50;;;;;;5082649;28;20129;-69
2021/09/14 06:15:53;;;;;;;10.48;8.52;;;17.90;21.70;;;;;;5073014;28;20130;-69
2021/09/14 06:18:21;;;;;;;11.30;8.60;;;17.90;20.50;;;;;;5077647;28;20051;-68
2021/09/14 06:20:49;;;;;;;12.48;7.97;;;18.10;20.90;;;;;;5076573;28;20052;-69
2021/09/14 06:23:16;;;;;;;14.10;8.68;;;18.10;20.60;;;;;;5082737;28;20064;-70
2021/09/14 06:25:46;;;;;;;11.68;8.10;;;18.10;21.10;;;;;;5059906;28;20048;-70
2021/09/14 06:28:14;;;;;;;12.95;8.93;;;18.20;20.70;;;;;;5081542;28;20121;-69
2021/09/14 06:30:42;;;;;;;14.10;8.85;;;18.20;19.80;;;;;;5079674;28;20052;-70
2021/09/14 06:33:10;;;;;;;13.27;9.05;;;18.10;20.50;;;;;;5078685;28;20130;-70
2021/09/14 06:35:38;;;;;;;11.00;8.38;;;18.20;21.20;;;;;;5076236;28;20063;-68
2021/09/14 06:38:06;;;;;;;11.50;8.63;;;18.40;19.10;;;;;;5063716;28;20112;-70
2021/09/14 06:40:34;;;;;;;11.35;8.15;;;18.40;18.90;;;;;;5075195;28;20118;-69
2021/09/14 06:43:04;;;;;;;9.30;8.23;;;18.50;18.20;;;;;;5078848;28;20052;-69
2021/09/14 06:45:32;;;;;;;12.85;7.75;;;18.80;17.50;;;;;;5076959;28;20052;-69
2021/09/14 06:48:00;;;;;;;11.63;8.18;;;18.70;17.90;;;;;;5078488;28;20284;-69
2021/09/14 06:50:32;;;;;;;10.48;8.10;;;18.70;17.40;;;;;;5078026;28;20036;-69
2021/09/14 06:53:00;;;;;;;12.73;8.43;;;18.70;17.40;;;;;;5080970;28;20462;-69
2021/09/14 06:55:28;;;;;;;10.88;7.70;;;18.80;17.50;;;;;;5076060;28;20098;-70
2021/09/14 06:57:56;;;;;;;20.75;14.40;;;18.80;17.50;;;;;;5085095;28;20093;-70
2021/09/14 07:00:26;;;;;;;9.63;8.63;;;19.00;16.50;;;;;;5073662;28;20353;-69
2021/09/14 07:02:54;;;;;;;11.05;7.80;;;19.10;16.00;;;;;;5084169;28;20053;-69
2021/09/14 07:05:24;;;;;;;10.77;7.43;;;19.00;15.80;;;;;;5078789;28;20101;-69
2021/09/14 07:07:52;;;;;;;9.70;7.85;;;19.30;15.80;;;;;;5066790;28;20465;-69
2021/09/14 07:10:20;;;;;;;11.80;7.97;;;19.10;15.00;;;;;;5059573;28;20102;-70
2021/09/14 07:12:48;;;;;;;11.27;7.93;;;19.20;14.80;;;;;;5082129;28;20105;-70
2021/09/14 07:15:27;;;;;;;12.13;7.60;;;19.40;14.20;;;;;;5077136;28;20083;-70
2021/09/14 07:17:55;;;;;;;10.50;6.75;;;19.50;13.70;;;;;;5079429;28;20093;-70
2021/09/14 07:20:23;;;;;;;8.23;6.72;;;19.60;13.30;;;;;;5079729;28;20045;-69
2021/09/14 07:22:51;;;;;;;10.55;7.25;;;19.70;13.00;;;;;;5077454;28;20048;-69
2021/09/14 07:25:19;;;;;;;10.30;7.00;;;19.70;11.40;;;;;;5076063;28;20056;-70
2021/09/14 07:27:47;;;;;;;11.27;7.32;;;19.90;10.90;;;;;;5083258;28;20500;-70
2021/09/14 07:30:15;;;;;;;10.23;6.78;;;19.80;10.80;;;;;;5055353;28;20052;-70
2021/09/14 07:32:45;;;;;;;11.15;7.85;;;20.00;10.60;;;;;;5076235;28;20063;-70
2021/09/14 07:35:13;;;;;;;7.95;7.15;;;20.00;9.80;;;;;;5077864;28;20059;-70
2021/09/14 07:37:40;;;;;;;12.15;7.43;;;20.00;9.60;;;;;;5080515;28;20441;-70
2021/09/14 07:40:09;;;;;;;9.05;6.90;;;19.90;10.10;;;;;;5082879;28;20097;-70
2021/09/14 07:42:37;;;;;;;9.07;6.82;;;20.20;9.90;;;;;;5079647;28;20406;-70
2021/09/14 07:45:06;;;;;;;8.70;6.85;;;20.40;7.50;;;;;;5075532;28;20060;-70
2021/09/14 07:47:34;;;;;;;9.32;6.30;;;20.60;7.50;;;;;;5082227;28;20044;-70
2021/09/14 07:50:04;;;;;;;9.57;7.13;;;20.70;5.80;;;;;;5078379;28;20067;-69
2021/09/14 07:52:32;;;;;;;7.72;6.93;;;20.60;5.30;;;;;;5079248;28;20066;-71
2021/09/14 07:55:00;;;;;;;8.10;6.65;;;20.90;5.50;;;;;;5079059;28;20230;-69
2021/09/14 07:57:29;;;;;;;8.57;6.30;;;21.00;5.10;;;;;;5080405;28;20055;-69
2021/09/14 07:59:57;;;;;;;10.30;5.65;;;21.10;3.80;;;;;;5078996;28;20535;-69
2021/09/14 08:02:25;;;;;;;9.13;6.68;;;21.10;2.90;;;;;;5079994;28;20045;-69
2021/09/14 08:04:53;;;;;;;16.15;6.55;;;21.20;2.90;;;;;;5077913;28;20093;-69
2021/09/14 08:07:22;;;;;;;10.48;6.25;;;21.30;2.50;;;;;;5084067;28;20044;-69
2021/09/14 08:09:50;;;;;;;7.82;6.20;;;21.40;3.10;;;;;;5073806;28;20568;-69
2021/09/14 08:12:18;;;;;;;7.97;6.28;;;21.50;2.90;;;;;;5081583;28;20040;-69
2021/09/14 08:14:47;;;;;;;7.60;5.97;;;21.50;2.60;;;;;;5079206;28;20193;-69
2021/09/14 08:17:16;;;;;;;7.82;6.20;;;21.50;2.50;;;;;;5085801;28;20514;-69
2021/09/14 08:19:44;;;;;;;8.80;6.65;;;21.60;2.20;;;;;;5079430;28;20090;-69
2021/09/14 08:22:13;;;;;;;12.00;6.65;;;21.60;2.00;;;;;;5085503;28;20047;-70
2021/09/14 08:24:42;;;;;;;6.72;5.90;;;21.80;1.20;;;;;;5080788;28;20059;-69
2021/09/14 08:27:10;;;;;;;9.00;6.30;;;21.70;1.70;;;;;;5085725;28;20094;-70
2021/09/14 08:29:39;;;;;;;11.85;5.78;;;21.90;1.00;;;;;;5070848;28;20105;-70
2021/09/14 08:32:08;;;;;;;10.68;6.20;;;22.00;1.00;;;;;;5082165;28;20040;-69
2021/09/14 08:34:39;;;;;;;8.73;6.30;;;22.30;1.00;;;;;;5062819;28;20051;-68
2021/09/14 08:37:08;;;;;;;5.72;5.10;;;22.10;1.00;;;;;;5087394;28;20048;-69
2021/09/14 08:39:36;;;;;;;8.75;5.30;;;22.20;1.00;;;;;;5080346;28;20040;-69
2021/09/14 08:42:06;;;;;;;10.10;6.43;;;22.60;1.00;;;;;;5084441;28;20090;-69
2021/09/14 08:44:37;;;;;;;9.45;5.72;;;22.60;1.00;;;;;;5064096;28;20064;-69
2021/09/14 08:47:06;;;;;;;10.70;6.38;;;22.70;1.00;;;;;;5086678;28;20078;-69
2021/09/14 08:49:35;;;;;;;7.60;5.60;;;22.70;1.00;;;;;;5078440;28;20051;-70
2021/09/14 08:52:03;;;;;;;7.95;5.38;;;22.90;1.00;;;;;;5082346;28;20051;-69
2021/09/14 08:54:31;;;;;;;8.70;5.13;;;22.60;1.00;;;;;;5079856;28;20086;-68
2021/09/14 08:56:59;;;;;;;7.95;5.88;;;22.90;1.00;;;;;;5063917;28;20048;-69
2021/09/14 08:59:30;;;;;;;10.48;5.90;;;23.10;1.00;;;;;;5080169;28;20052;-68
2021/09/14 09:02:04;;;;;;;7.38;5.20;;;23.20;1.00;;;;;;5074088;28;20043;-69
2021/09/14 09:04:33;;;;;;;6.38;4.95;;;23.50;1.00;;;;;;5084275;28;20080;-69
2021/09/14 09:07:02;;;;;;;9.32;6.97;;;23.70;1.00;;;;;;5078645;28;20068;-69
2021/09/14 09:09:32;;;;;;;12.15;6.20;;;23.50;1.00;;;;;;5083183;28;20515;-70
2021/09/14 09:12:02;;;;;;;10.48;6.00;;;23.70;1.00;;;;;;5085352;28;20491;-69
2021/09/14 09:14:39;;;;;;;7.82;5.70;;;23.70;1.00;;;;;;5080154;28;20281;-69
2021/09/14 09:17:08;;;;;;;7.32;5.38;;;23.70;1.00;;;;;;5082755;28;20051;-70
2021/09/14 09:19:37;;;;;;;6.20;5.53;;;23.90;1.00;;;;;;5064107;28;20087;-69
2021/09/14 09:22:12;;;;;;;8.55;6.15;;;24.00;1.00;;;;;;5056984;28;20075;-68
2021/09/14 09:24:45;;;;;;;9.15;6.28;;;24.00;1.00;;;;;;5078590;28;20041;-71
2021/09/14 09:27:14;;;;;;;7.78;5.40;;;23.50;1.00;;;;;;5083263;28;20505;-69
2021/09/14 09:29:43;;;;;;;7.25;5.72;;;23.90;1.00;;;;;;5062228;28;20057;-69
2021/09/14 09:32:11;;;;;;;10.55;6.30;;;24.00;1.00;;;;;;5083219;28;20626;-70
2021/09/14 09:34:39;;;;;;;8.38;6.18;;;24.10;1.00;;;;;;5062408;28;20415;-70
2021/09/14 09:37:09;;;;;;;7.65;6.20;;;24.00;1.00;;;;;;5080905;28;20090;-68
2021/09/14 09:39:41;;;;;;;9.32;6.57;;;24.10;1.00;;;;;;5076946;28;20048;-69
2021/09/14 09:42:10;;;;;;;10.07;5.57;;;24.50;1.00;;;;;;5079568;28;20125;-69
2021/09/14 09:44:38;;;;;;;7.50;6.03;;;24.30;1.00;;;;;;5040758;28;20071;-69
2021/09/14 09:47:08;;;;;;;7.70;5.70;;;24.20;1.00;;;;;;5060736;28;20454;-69
2021/09/14 09:49:36;;;;;;;8.98;5.80;;;24.50;1.00;;;;;;5074492;28;20048;-70
2021/09/14 09:52:05;;;;;;;10.07;6.13;;;24.70;1.00;;;;;;5077284;28;20070;-69
2021/09/14 09:54:33;;;;;;;7.35;5.78;;;24.80;1.00;;;;;;5075484;28;20043;-69
2021/09/14 09:57:02;;;;;;;9.63;6.00;;;24.50;1.00;;;;;;5081785;28;20127;-68
2021/09/14 09:59:30;;;;;;;7.82;6.03;;;24.40;1.00;;;;;;5078237;28;20104;-69
2021/09/14 10:02:06;;;;;;;6.43;5.57;;;24.90;1.00;;;;;;5079372;28;20076;-70
2021/09/14 10:04:44;;;;;;;9.70;5.50;;;25.10;1.00;;;;;;5076996;28;20052;-69
2021/09/14 10:07:13;;;;;;;8.02;6.10;;;25.10;1.00;;;;;;5078209;28;20059;-69
2021/09/14 10:09:52;;;;;;;10.90;5.65;;;25.20;1.00;;;;;;5072677;28;20044;-68
2021/09/14 10:12:29;;;;;;;9.20;5.55;;;25.20;1.00;;;;;;5059599;28;20256;-68
2021/09/14 10:14:58;;;;;;;7.78;5.50;;;25.40;1.00;;;;;;5076145;28;20068;-69
2021/09/14 10:17:27;;;;;;;7.80;5.28;;;25.10;1.00;;;;;;5080753;28;20570;-69
2021/09/14 10:20:08;;;;;;;7.75;6.18;;;25.50;1.00;;;;;;5075283;28;20060;-69
2021/09/14 10:22:36;;;;;;;7.93;5.47;;;25.70;1.00;;;;;;5063813;28;20071;-69
2021/09/14 10:25:06;;;;;;;7.10;5.63;;;25.60;1.00;;;;;;5075459;28;20172;-69
2021/09/14 10:27:39;;;;;;;8.68;5.50;;;25.30;1.00;;;;;;5062283;28;20052;-69
2021/09/14 10:30:10;;;;;;;10.55;5.55;;;25.00;1.00;;;;;;5075332;28;20039;-69
2021/09/14 10:32:41;;;;;;;8.43;5.60;;;25.50;1.00;;;;;;5065422;28;20044;-69
2021/09/14 10:35:12;;;;;;;6.78;5.40;;;25.70;1.00;;;;;;5076790;28;20048;-70
2021/09/14 10:37:40;;;;;;;8.32;5.47;;;25.50;1.00;;;;;;5076292;28;20043;-70
2021/09/14 10:40:12;;;;;;;6.70;5.10;;;25.70;1.00;;;;;;5075911;28;20044;-70
2021/09/14 10:42:43;;;;;;;7.82;4.72;;;26.00;1.00;;;;;;5082503;28;20083;-70
2021/09/14 10:45:13;;;;;;;8.13;5.20;;;25.70;1.00;;;;;;5074058;28;20163;-69
2021/09/14 10:47:45;;;;;;;6.43;4.88;;;25.50;1.00;;;;;;5078813;28;20443;-70
2021/09/14 10:50:27;;;;;;;8.90;5.07;;;25.50;1.00;;;;;;5078868;28;20178;-68
2021/09/14 10:52:59;;;;;;;6.22;5.25;;;25.50;1.00;;;;;;5075425;28;20052;-70
2021/09/14 10:55:29;;;;;;;6.35;4.80;;;25.50;1.00;;;;;;5074610;28;20487;-70
2021/09/14 10:58:00;;;;;;;5.53;4.82;;;25.40;1.00;;;;;;5082869;28;20403;-70
2021/09/14 11:00:31;;;;;;;8.18;5.85;;;25.30;1.00;;;;;;5059840;28;20690;-69
2021/09/14 11:03:04;;;;;;;6.70;5.85;;;25.40;1.00;;;;;;5076255;28;20056;-69
2021/09/14 11:05:36;;;;;;;6.07;5.47;;;25.40;1.00;;;;;;5070573;28;20048;-69
2021/09/14 11:08:05;;;;;;;6.28;5.00;;;25.40;1.00;;;;;;5060655;28;20048;-70
2021/09/14 11:10:34;;;;;;;6.68;5.15;;;25.50;1.00;;;;;;5077234;28;20116;-69
2021/09/14 11:13:04;;;;;;;8.38;5.90;;;25.50;1.00;;;;;;5065297;28;20632;-70
2021/09/14 11:15:33;;;;;;;11.32;5.13;;;25.80;1.00;;;;;;5076264;28;20123;-69
2021/09/14 11:18:01;;;;;;;6.85;5.22;;;25.80;1.00;;;;;;5053435;28;20040;-70
2021/09/14 11:20:30;;;;;;;7.80;6.20;;;26.00;1.00;;;;;;5057607;28;20040;-69
2021/09/14 11:23:01;;;;;;;7.40;5.07;;;25.80;1.00;;;;;;5078966;28;20175;-70
2021/09/14 11:25:30;;;;;;;7.30;4.97;;;26.10;1.00;;;;;;5071459;28;20093;-71
2021/09/14 11:28:00;;;;;;;10.40;5.63;;;26.30;1.00;;;;;;5079412;28;20097;-69
2021/09/14 11:30:30;;;;;;;5.50;4.88;;;25.70;1.00;;;;;;5059651;28;20136;-69
2021/09/14 11:33:00;;;;;;;7.43;5.03;;;25.70;1.00;;;;;;5063299;28;20079;-73
2021/09/14 11:35:29;;;;;;;9.75;5.13;;;25.70;1.00;;;;;;5055196;28;20074;-69
2021/09/14 11:38:00;;;;;;;5.88;4.93;;;25.80;1.00;;;;;;5069371;28;20146;-70
2021/09/14 11:40:31;;;;;;;7.32;4.70;;;26.20;1.00;;;;;;5072090;28;20049;-70
2021/09/14 11:43:02;;;;;;;7.65;4.70;;;25.50;1.00;;;;;;5049171;28;20472;-70
2021/09/14 11:45:32;;;;;;;6.95;4.72;;;25.50;1.00;;;;;;5078833;28;20052;-70
2021/09/14 11:48:01;;;;;;;6.57;4.68;;;25.60;1.00;;;;;;5082693;28;20039;-70
2021/09/14 11:50:38;;;;;;;5.25;4.40;;;25.40;1.00;;;;;;5080526;28;20133;-69
2021/09/14 11:53:11;;;;;;;4.78;3.90;;;25.30;1.00;;;;;;5078193;28;20565;-70
2021/09/14 11:55:44;;;;;;;4.22;3.83;;;25.10;1.00;;;;;;5065689;28;20113;-68
2021/09/14 11:58:13;;;;;;;6.45;4.10;;;25.40;1.00;;;;;;5082781;28;20415;-69
2021/09/14 12:00:43;;;;;;;6.30;3.88;;;25.40;1.00;;;;;;5061296;28;20044;-70
2021/09/14 12:03:13;;;;;;;5.88;4.03;;;25.50;1.00;;;;;;5082428;28;20047;-69
2021/09/14 12:05:54;;;;;;;7.25;4.28;;;25.70;1.00;;;;;;5076972;28;20518;-71
2021/09/14 12:08:30;;;;;;;4.93;4.03;;;26.00;1.00;;;;;;5082383;28;20123;-69
2021/09/14 12:10:59;;;;;;;6.07;4.40;;;26.00;1.00;;;;;;5077530;28;20055;-70
2021/09/14 12:13:28;;;;;;;4.55;4.05;;;25.90;1.00;;;;;;5083271;28;20075;-70
2021/09/14 12:16:09;;;;;;;4.78;4.20;;;25.60;1.00;;;;;;5058598;28;20523;-70
2021/09/14 12:18:40;;;;;;;5.57;4.45;;;25.70;1.00;;;;;;5081214;28;20052;-70
2021/09/14 12:21:12;;;;;;;7.30;4.30;;;25.70;1.00;;;;;;5050098;28;20060;-70
2021/09/14 12:23:42;;;;;;;6.15;4.63;;;25.60;1.00;;;;;;5080841;28;20523;-69
2021/09/14 12:26:18;;;;;;;7.45;5.03;;;26.00;1.00;;;;;;5076597;28;20048;-68
2021/09/14 12:28:56;;;;;;;6.82;4.75;;;25.80;1.00;;;;;;5049727;28;20519;-69
2021/09/14 12:31:32;;;;;;;6.57;4.68;;;25.70;1.00;;;;;;5080475;28;20036;-69
2021/09/14 12:34:00;;;;;;;6.25;5.43;;;25.70;1.00;;;;;;5083828;28;20097;-69
2021/09/14 12:36:29;;;;;;;5.43;4.90;;;25.50;1.00;;;;;;5070823;28;20048;-69
2021/09/14 12:38:58;;;;;;;6.65;5.50;;;25.60;1.00;;;;;;5045397;28;20060;-70
2021/09/14 12:41:27;;;;;;;8.77;5.28;;;25.80;1.00;;;;;;5084250;28;20312;-69
2021/09/14 12:43:55;;;;;;;5.35;4.78;;;25.60;1.00;;;;;;5079561;28;20045;-68
2021/09/14 12:46:23;;;;;;;6.07;5.03;;;25.70;1.00;;;;;;5061318;28;20055;-69
2021/09/14 12:48:52;;;;;;;6.70;5.03;;;25.80;1.00;;;;;;5078736;28;20124;-70
2021/09/14 12:51:20;;;;;;;7.85;5.03;;;25.70;1.00;;;;;;5078494;28;20070;-70
2021/09/14 12:53:48;;;;;;;6.93;4.75;;;25.70;1.00;;;;;;5076281;28;20476;-71
2021/09/14 12:56:19;;;;;;;8.18;4.72;;;25.80;1.00;;;;;;5080832;28;20139;-68
2021/09/14 12:58:49;;;;;;;5.40;4.90;;;25.80;1.00;;;;;;5068907;28;20154;-69
2021/09/14 13:01:18;;;;;;;6.97;4.85;;;25.80;1.00;;;;;;5080223;28;20047;-69
2021/09/14 13:03:50;;;;;;;8.45;5.30;;;25.80;1.00;;;;;;5080583;28;20048;-70
2021/09/14 13:06:18;;;;;;;6.45;4.90;;;25.80;1.00;;;;;;5045355;28;20148;-68
2021/09/14 13:08:46;;;;;;;7.22;5.47;;;26.00;1.00;;;;;;5066407;28;20683;-69
2021/09/14 13:11:15;;;;;;;10.98;5.32;;;25.80;1.00;;;;;;5083006;28;20129;-69
2021/09/14 13:16:30;;;;;;;6.25;4.82;;;26.00;1.00;;;;;;5077458;28;20052;-69
2021/09/14 13:18:58;;;;;;;6.40;5.22;;;25.80;1.00;;;;;;5078538;28;20044;-69
2021/09/14 13:21:28;;;;;;;8.82;4.90;;;26.00;1.00;;;;;;5083827;28;20143;-69
2021/09/14 13:23:56;;;;;;;5.93;5.32;;;26.20;1.00;;;;;;5079063;28;20040;-71
2021/09/14 13:26:24;;;;;;;5.72;5.13;;;25.90;1.00;;;;;;5077278;28;20044;-70
2021/09/14 13:28:53;;;;;;;6.65;5.43;;;25.60;1.00;;;;;;5075875;28;20083;-68
2021/09/14 13:31:21;;;;;;;6.00;5.40;;;25.80;1.00;;;;;;5081951;28;20047;-69
2021/09/14 13:33:49;;;;;;;7.00;5.80;;;25.90;1.00;;;;;;5078267;28;20451;-69
2021/09/14 13:36:17;;;;;;;5.68;4.90;;;25.80;1.00;;;;;;5079449;28;20121;-69
2021/09/14 13:38:46;;;;;;;5.78;5.25;;;25.80;1.00;;;;;;5075216;28;20071;-70
2021/09/14 13:41:16;;;;;;;6.10;5.43;;;26.10;1.00;;;;;;5082640;28;20047;-69
2021/09/14 13:43:52;;;;;;;5.60;4.60;;;26.20;1.00;;;;;;5079200;28;20154;-69
2021/09/14 13:46:21;;;;;;;5.60;5.05;;;26.10;1.00;;;;;;5077490;28;20127;-70
2021/09/14 13:48:50;;;;;;;5.72;5.13;;;26.20;1.00;;;;;;5076302;28;21197;-72